createdAt,value
2022-10-17T00:01:30.951Z,2.70
2022-10-17T00:03:57.711Z,2.80
2022-10-17T00:06:24.460Z,2.58
2022-10-17T00:08:51.204Z,2.85
2022-10-17T00:11:20.525Z,2.70
2022-10-17T00:13:49.350Z,2.30
2022-10-17T00:18:50.694Z,4.60
2022-10-17T00:21:19.871Z,3.72
2022-10-17T00:23:47.185Z,2.85
2022-10-17T00:26:14.363Z,2.55
2022-10-17T00:28:41.119Z,2.53
2022-10-17T00:31:08.123Z,2.70
2022-10-17T00:33:35.833Z,2.63
2022-10-17T00:36:06.365Z,2.50
2022-10-17T00:38:33.196Z,2.60
2022-10-17T00:40:59.930Z,2.63
2022-10-17T00:43:26.923Z,2.30
2022-10-17T00:45:53.782Z,2.45
2022-10-17T00:48:23.374Z,2.40
2022-10-17T00:50:50.647Z,2.30
2022-10-17T00:53:18.543Z,2.60
2022-10-17T00:55:49.874Z,2.08
2022-10-17T00:58:17.294Z,2.00
2022-10-17T01:00:46.143Z,2.10
2022-10-17T01:03:12.902Z,2.00
2022-10-17T01:08:28.101Z,2.00
2022-10-17T01:11:15.184Z,2.10
2022-10-17T01:14:29.770Z,2.30
2022-10-17T01:20:11.200Z,1.90
2022-10-17T01:23:04.497Z,2.10
2022-10-17T01:28:50.867Z,2.28
2022-10-17T01:31:22.883Z,2.20
2022-10-17T01:34:14.496Z,2.10
2022-10-17T01:36:49.886Z,2.00
2022-10-17T01:39:45.614Z,2.10
2022-10-17T01:42:30.211Z,1.90
2022-10-17T01:45:23.170Z,2.00
2022-10-17T01:50:44.589Z,2.00
2022-10-17T01:53:18.360Z,2.20
2022-10-17T01:55:46.938Z,2.13
2022-10-17T02:01:14.506Z,2.30
2022-10-17T02:03:43.761Z,2.40
2022-10-17T02:06:10.590Z,2.40
2022-10-17T02:08:48.791Z,2.55
2022-10-17T02:11:17.906Z,2.30
2022-10-17T02:14:05.797Z,2.40
2022-10-17T02:17:10.408Z,2.00
2022-10-17T02:20:02.355Z,2.35
2022-10-17T02:22:41.800Z,2.05
2022-10-17T02:25:35.546Z,2.00
2022-10-17T02:28:08.426Z,1.90
2022-10-17T02:30:42.742Z,2.00
2022-10-17T02:33:12.431Z,2.10
2022-10-17T02:35:44.620Z,1.88
2022-10-17T02:38:13.806Z,2.40
2022-10-17T02:40:41.735Z,2.08
2022-10-17T02:43:08.622Z,1.80
2022-10-17T02:45:37.628Z,1.90
2022-10-17T02:48:12.511Z,1.80
2022-10-17T02:50:51.995Z,2.00
2022-10-17T02:53:30.342Z,2.10
2022-10-17T02:56:02.392Z,1.70
2022-10-17T02:58:33.438Z,1.80
2022-10-17T03:01:00.972Z,1.50
2022-10-17T03:03:30.717Z,1.73
2022-10-17T03:05:57.523Z,1.80
2022-10-17T03:08:24.682Z,1.70
2022-10-17T03:10:51.692Z,1.80
2022-10-17T03:13:18.802Z,1.90
2022-10-17T03:15:45.655Z,1.80
2022-10-17T03:18:12.469Z,1.80
2022-10-17T03:20:39.273Z,1.80
2022-10-17T03:23:06.000Z,1.80
2022-10-17T03:25:32.813Z,1.67
2022-10-17T03:27:59.969Z,1.67
2022-10-17T03:30:27.013Z,1.80
2022-10-17T03:32:53.721Z,1.58
2022-10-17T03:38:07.381Z,1.60
2022-10-17T03:43:20.775Z,1.75
2022-10-17T03:45:47.497Z,1.70
2022-10-17T03:48:14.197Z,1.80
2022-10-17T03:50:40.942Z,1.70
2022-10-17T03:53:07.641Z,1.70
2022-10-17T03:55:34.359Z,1.70
2022-10-17T03:58:01.078Z,1.40
2022-10-17T04:00:27.860Z,1.50
2022-10-17T04:02:54.598Z,1.50
2022-10-17T04:05:21.399Z,1.40
2022-10-17T04:07:48.232Z,1.50
2022-10-17T04:10:15.016Z,1.50
2022-10-17T04:12:41.847Z,1.63
2022-10-17T04:15:09.302Z,1.55
2022-10-17T04:17:38.195Z,1.50
2022-10-17T04:20:05.587Z,1.40
2022-10-17T04:22:32.400Z,1.50
2022-10-17T04:24:59.241Z,1.60
2022-10-17T04:27:26.098Z,2.20
2022-10-17T04:29:52.855Z,4.00
2022-10-17T04:32:19.576Z,3.90
2022-10-17T04:34:49.140Z,1.90
2022-10-17T04:37:16.042Z,1.75
2022-10-17T04:39:42.749Z,1.70
2022-10-17T04:42:09.476Z,1.88
2022-10-17T04:44:36.198Z,1.50
2022-10-17T04:49:49.626Z,1.70
2022-10-17T04:52:16.345Z,1.50
2022-10-17T04:54:43.064Z,2.37
2022-10-17T04:57:10.219Z,3.65
2022-10-17T04:59:37.009Z,4.28
2022-10-17T05:02:03.821Z,1.90
2022-10-17T05:04:30.551Z,2.00
2022-10-17T05:06:57.311Z,2.10
2022-10-17T05:09:24.111Z,2.50
2022-10-17T05:11:50.891Z,2.55
2022-10-17T05:14:17.648Z,1.60
2022-10-17T05:16:44.399Z,1.70
2022-10-17T05:19:12.000Z,2.03
2022-10-17T05:21:38.940Z,1.80
2022-10-17T05:24:07.526Z,1.90
2022-10-17T05:26:34.637Z,1.70
2022-10-17T05:29:02.553Z,1.77
2022-10-17T05:31:30.375Z,1.60
2022-10-17T05:34:01.010Z,1.75
2022-10-17T05:36:27.773Z,2.00
2022-10-17T05:38:54.504Z,1.90
2022-10-17T05:41:21.750Z,1.90
2022-10-17T05:43:48.664Z,1.98
2022-10-17T05:46:15.421Z,2.05
2022-10-17T05:48:42.330Z,1.92
2022-10-17T05:49:54.265Z,0
2022-10-17T05:51:10.136Z,1.90
2022-10-17T05:53:39.228Z,1.80
2022-10-17T05:56:08.023Z,1.95
2022-10-17T05:58:52.369Z,1.60
2022-10-17T05:59:02.311Z,0
2022-10-17T06:01:20.998Z,1.70
2022-10-17T06:03:47.724Z,2.20
2022-10-17T06:06:15.882Z,3.22
2022-10-17T06:11:10.586Z,1.80
2022-10-17T06:13:38.498Z,1.77
2022-10-17T06:18:52.513Z,1.70
2022-10-17T06:21:26.714Z,1.60
2022-10-17T06:23:53.660Z,1.65
2022-10-17T06:26:20.442Z,1.90
2022-10-17T06:28:47.220Z,1.80
2022-10-17T06:31:16.310Z,2.00
2022-10-17T06:33:43.494Z,1.90
2022-10-17T06:36:13.391Z,1.90
2022-10-17T06:38:40.185Z,1.80
2022-10-17T06:41:10.933Z,2.00
2022-10-17T06:43:38.391Z,1.85
2022-10-17T06:46:05.805Z,1.90
2022-10-17T06:48:33.297Z,2.00
2022-10-17T06:51:01.603Z,1.80
2022-10-17T06:53:33.134Z,1.80
2022-10-17T06:56:00.918Z,1.83
2022-10-17T06:58:28.917Z,1.90
2022-10-17T07:03:53.796Z,1.90
2022-10-17T07:06:21.264Z,1.80
2022-10-17T07:08:47.971Z,1.90
2022-10-17T07:11:19.797Z,1.70
2022-10-17T07:13:46.966Z,2.00
2022-10-17T07:16:14.845Z,2.20
2022-10-17T07:18:41.753Z,1.85
2022-10-17T07:21:09.058Z,1.80
2022-10-17T07:23:36.852Z,1.80
2022-10-17T07:26:06.547Z,1.90
2022-10-17T07:28:38.326Z,2.00
2022-10-17T07:34:00.490Z,1.97
2022-10-17T07:39:13.950Z,1.92
2022-10-17T07:41:40.659Z,2.10
2022-10-17T07:44:07.381Z,2.15
2022-10-17T07:46:34.246Z,2.30
2022-10-17T07:49:01.002Z,2.80
2022-10-17T07:51:27.729Z,2.13
2022-10-17T07:53:54.473Z,2.20
2022-10-17T07:56:21.276Z,2.20
2022-10-17T07:58:48.024Z,2.30
2022-10-17T08:01:15.718Z,2.50
2022-10-17T08:03:44.806Z,2.20
2022-10-17T08:06:12.417Z,2.10
2022-10-17T08:07:31.090Z,0
2022-10-17T08:11:25.858Z,2.60
2022-10-17T08:16:42.974Z,3.78
2022-10-17T08:21:56.590Z,2.15
2022-10-17T08:27:10.011Z,2.50
2022-10-17T08:29:37.513Z,2.40
2022-10-17T08:32:07.629Z,2.40
2022-10-17T08:34:35.724Z,2.47
2022-10-17T08:37:02.525Z,2.30
2022-10-17T08:39:29.285Z,2.10
2022-10-17T08:47:59.570Z,2.22
2022-10-17T08:50:32.163Z,2.10
2022-10-17T08:53:10.785Z,2.40
2022-10-17T08:55:44.402Z,2.40
2022-10-17T08:58:28.913Z,2.40
2022-10-17T09:01:20.013Z,2.30
2022-10-17T09:03:52.309Z,2.25
2022-10-17T09:09:30.496Z,2.35
2022-10-17T09:12:05.102Z,2.20
2022-10-17T09:14:47.224Z,2.33
2022-10-17T09:17:33.162Z,2.80
2022-10-17T09:20:03.006Z,2.17
2022-10-17T09:22:37.655Z,2.40
2022-10-17T09:25:10.027Z,2.28
2022-10-17T09:27:51.501Z,2.20
2022-10-17T09:30:46.485Z,2.15
2022-10-17T09:33:55.222Z,2.10
2022-10-17T09:36:16.458Z,2.17
2022-10-17T09:38:52.067Z,2.13
2022-10-17T09:44:22.178Z,2.17
2022-10-17T09:49:19.600Z,0
2022-10-17T09:49:57.553Z,2.35
2022-10-17T09:52:42.476Z,2.00
2022-10-17T09:55:32.262Z,2.00
2022-10-17T09:58:01.671Z,2.20
2022-10-17T10:00:33.581Z,2.10
2022-10-17T10:03:15.630Z,2.20
2022-10-17T10:05:44.037Z,2.30
2022-10-17T10:08:16.347Z,2.80
2022-10-17T10:10:45.123Z,2.38
2022-10-17T10:13:15.015Z,2.30
2022-10-17T10:15:47.033Z,2.20
2022-10-17T10:18:35.561Z,2.25
2022-10-17T10:24:12.642Z,2.30
2022-10-17T10:26:41.232Z,2.00
2022-10-17T10:29:28.764Z,2.05
2022-10-17T10:31:56.042Z,4.93
2022-10-17T10:34:26.401Z,2.10
2022-10-17T10:37:05.398Z,2.20
2022-10-17T10:39:43.663Z,3.10
2022-10-17T10:42:21.642Z,2.20
2022-10-17T10:44:49.737Z,2.30
2022-10-17T10:47:19.260Z,2.10
2022-10-17T10:49:46.485Z,2.30
2022-10-17T10:52:29.777Z,2.20
2022-10-17T10:58:20.629Z,1.90
2022-10-17T11:00:48.041Z,2.20
2022-10-17T11:03:36.017Z,2.30
2022-10-17T11:06:13.789Z,2.30
2022-10-17T11:08:49.687Z,2.20
2022-10-17T11:11:36.617Z,2.33
2022-10-17T11:14:15.294Z,2.45
2022-10-17T11:16:52.642Z,2.50
2022-10-17T11:19:33.970Z,2.65
2022-10-17T11:22:26.640Z,2.60
2022-10-17T11:25:05.057Z,2.60
2022-10-17T11:27:33.945Z,3.20
2022-10-17T11:30:01.406Z,2.80
2022-10-17T11:32:46.156Z,2.70
2022-10-17T11:35:26.411Z,4.15
2022-10-17T11:38:25.995Z,2.63
2022-10-17T11:44:20.515Z,2.60
2022-10-17T11:46:54.540Z,3.00
2022-10-17T11:52:04.776Z,0
2022-10-17T11:52:51.360Z,2.73
2022-10-17T11:55:26.995Z,3.38
2022-10-17T11:58:12.328Z,3.00
2022-10-17T12:00:49.092Z,2.73
2022-10-17T12:03:38.459Z,2.60
2022-10-17T12:06:39.403Z,2.60
2022-10-17T12:09:18.598Z,2.20
2022-10-17T12:11:58.593Z,2.40
2022-10-17T12:14:36.262Z,2.55
2022-10-17T12:17:04.341Z,2.50
2022-10-17T12:19:33.349Z,2.80
2022-10-17T12:22:04.402Z,2.50
2022-10-17T12:24:41.184Z,2.75
2022-10-17T12:27:34.271Z,2.30
2022-10-17T12:30:04.925Z,2.40
2022-10-17T12:32:46.839Z,2.50
2022-10-17T12:33:08.583Z,0
2022-10-17T12:35:24.025Z,2.40
2022-10-17T12:37:57.334Z,2.30
2022-10-17T12:43:30.470Z,2.40
2022-10-17T12:48:44.536Z,2.80
2022-10-17T12:51:34.914Z,2.60
2022-10-17T12:54:13.350Z,2.60
2022-10-17T12:56:47.255Z,2.78
2022-10-17T12:59:25.871Z,3.00
2022-10-17T13:02:01.812Z,2.60
2022-10-17T13:04:30.343Z,3.30
2022-10-17T13:09:29.755Z,4.05
2022-10-17T13:11:59.789Z,2.90
2022-10-17T13:14:27.525Z,2.67
2022-10-17T13:16:57.162Z,2.95
2022-10-17T13:19:30.580Z,2.75
2022-10-17T13:22:06.091Z,2.70
2022-10-17T13:24:39.785Z,2.60
2022-10-17T13:27:22.340Z,2.80
2022-10-17T13:29:49.163Z,2.83
2022-10-17T13:32:16.273Z,2.70
2022-10-17T13:34:43.175Z,2.97
2022-10-17T13:40:11.304Z,2.60
2022-10-17T13:40:50.819Z,0
2022-10-17T13:42:47.858Z,3.00
2022-10-17T13:45:23.829Z,3.03
2022-10-17T13:46:42.135Z,0
2022-10-17T13:50:45.232Z,2.90
2022-10-17T13:53:20.098Z,3.50
2022-10-17T13:56:09.378Z,4.03
2022-10-17T14:01:13.425Z,3.53
2022-10-17T14:04:00.959Z,3.50
2022-10-17T14:04:22.222Z,0
2022-10-17T14:08:26.526Z,0
2022-10-17T14:09:25.174Z,3.40
2022-10-17T14:12:09.713Z,3.10
2022-10-17T14:14:58.318Z,3.20
2022-10-17T14:21:46.531Z,0
2022-10-17T14:23:25.672Z,0
2022-10-17T14:23:35.182Z,3.27
2022-10-17T14:26:17.041Z,3.00
2022-10-17T14:31:20.133Z,3.40
2022-10-17T14:33:50.839Z,3.50
2022-10-17T14:36:19.348Z,3.60
2022-10-17T14:38:48.814Z,3.65
2022-10-17T14:41:41.817Z,3.42
2022-10-17T14:41:48.118Z,0
2022-10-17T14:44:27.058Z,3.38
2022-10-17T14:47:05.958Z,3.40
2022-10-17T14:47:48.756Z,0
2022-10-17T14:49:39.128Z,3.40
2022-10-17T14:52:18.374Z,4.18
2022-10-17T14:54:47.849Z,3.60
2022-10-17T14:57:33.468Z,3.60
2022-10-17T15:02:48.229Z,3.85
2022-10-17T15:08:02.360Z,3.40
2022-10-17T15:13:28.488Z,3.70
2022-10-17T15:18:42.339Z,5.20
2022-10-17T15:21:33.672Z,5.13
2022-10-17T15:21:48.973Z,0
2022-10-17T15:26:47.607Z,3.88
2022-10-17T15:32:02.325Z,4.10
2022-10-17T15:34:29.093Z,3.80
2022-10-17T15:36:55.786Z,4.00
2022-10-17T15:39:22.663Z,4.10
2022-10-17T15:41:49.455Z,4.38
2022-10-17T15:44:17.121Z,4.90
2022-10-17T15:46:44.038Z,4.30
2022-10-17T15:49:13.690Z,4.60
2022-10-17T15:51:40.806Z,5.70
2022-10-17T15:54:07.618Z,6.82
2022-10-17T15:56:38.164Z,4.30
2022-10-17T15:59:07.971Z,5.57
2022-10-17T16:01:35.067Z,5.72
2022-10-17T16:04:02.167Z,4.88
2022-10-17T16:06:28.892Z,4.80
2022-10-17T16:08:55.694Z,4.90
2022-10-17T16:11:31.470Z,4.88
2022-10-17T16:14:00.799Z,4.88
2022-10-17T16:16:27.716Z,5.20
2022-10-17T16:18:54.625Z,4.70
2022-10-17T16:21:25.864Z,4.20
2022-10-17T16:23:52.991Z,4.93
2022-10-17T16:28:46.909Z,5.20
2022-10-17T16:31:23.743Z,4.93
2022-10-17T16:33:52.718Z,5.10
2022-10-17T16:36:20.092Z,7.32
2022-10-17T16:38:47.890Z,5.82
2022-10-17T16:41:24.417Z,5.87
2022-10-17T16:43:52.974Z,5.68
2022-10-17T16:49:07.665Z,6.10
2022-10-17T16:51:35.297Z,6.00
2022-10-17T16:54:02.609Z,5.55
2022-10-17T16:56:29.326Z,6.40
2022-10-17T16:58:56.302Z,5.77
2022-10-17T17:01:25.154Z,6.00
2022-10-17T17:03:53.337Z,6.05
2022-10-17T17:06:25.752Z,6.00
2022-10-17T17:08:53.590Z,6.60
2022-10-17T17:11:23.637Z,12.38
2022-10-17T17:13:50.872Z,9.45
2022-10-17T17:16:20.364Z,7.65
2022-10-17T17:18:47.706Z,7.40
2022-10-17T17:21:14.936Z,9.40
2022-10-17T17:23:43.194Z,8.30
2022-10-17T17:26:21.117Z,8.70
2022-10-17T17:31:20.478Z,7.60
2022-10-17T17:33:47.297Z,8.20
2022-10-17T17:36:20.491Z,7.55
2022-10-17T17:38:48.121Z,7.43
2022-10-17T17:44:10.167Z,7.20
2022-10-17T17:49:25.880Z,7.93
2022-10-17T17:51:52.666Z,7.28
2022-10-17T17:54:19.402Z,6.82
2022-10-17T17:56:46.199Z,9.10
2022-10-17T17:59:13.397Z,8.40
2022-10-17T18:01:40.360Z,7.70
2022-10-17T18:04:08.968Z,7.80
2022-10-17T18:09:05.800Z,7.55
2022-10-17T18:11:33.143Z,7.85
2022-10-17T18:16:30.904Z,6.32
2022-10-17T18:19:02.610Z,6.60
2022-10-17T18:21:33.005Z,6.47
2022-10-17T18:23:59.740Z,6.70
2022-10-17T18:26:27.208Z,7.18
2022-10-17T18:28:54.100Z,9.95
2022-10-17T18:31:23.115Z,12.70
2022-10-17T18:33:56.148Z,8.00
2022-10-17T18:36:23.357Z,6.50
2022-10-17T18:38:50.147Z,6.70
2022-10-17T18:41:19.966Z,6.33
2022-10-17T18:43:48.147Z,5.90
2022-10-17T18:46:33.126Z,6.10
2022-10-17T18:48:59.872Z,5.60
2022-10-17T18:51:26.902Z,5.50
2022-10-17T18:53:55.630Z,6.30
2022-10-17T18:56:23.565Z,6.10
2022-10-17T18:58:50.662Z,5.80
2022-10-17T19:01:22.676Z,5.60
2022-10-17T19:03:51.241Z,4.90
2022-10-17T19:06:20.522Z,5.50
2022-10-17T19:11:36.417Z,8.07
2022-10-17T19:16:52.171Z,6.25
2022-10-17T19:19:24.390Z,6.50
2022-10-17T19:21:52.038Z,5.70
2022-10-17T19:24:24.769Z,5.43
2022-10-17T19:26:54.063Z,5.90
2022-10-17T19:29:22.518Z,5.88
2022-10-17T19:31:49.448Z,5.30
2022-10-17T19:34:17.010Z,5.70
2022-10-17T19:36:44.108Z,6.30
2022-10-17T19:39:16.208Z,6.32
2022-10-17T19:41:44.723Z,6.88
2022-10-17T19:44:11.527Z,6.40
2022-10-17T19:46:39.119Z,7.45
2022-10-17T19:49:07.016Z,6.70
2022-10-17T19:51:34.075Z,8.37
2022-10-17T19:54:01.271Z,8.60
2022-10-17T19:56:30.725Z,9.32
2022-10-17T19:58:58.195Z,11.05
2022-10-17T20:04:14.427Z,10.47
2022-10-17T20:05:29.091Z,0
2022-10-17T20:06:41.501Z,9.07
2022-10-17T20:09:11.136Z,8.90
2022-10-17T20:11:40.983Z,9.98
2022-10-17T20:14:07.824Z,8.95
2022-10-17T20:16:36.364Z,8.80
2022-10-17T20:19:09.137Z,8.80
2022-10-17T20:21:36.727Z,9.65
2022-10-17T20:24:05.861Z,8.80
2022-10-17T20:26:38.272Z,8.80
2022-10-17T20:29:17.437Z,9.13
2022-10-17T20:31:45.816Z,9.00
2022-10-17T20:34:14.761Z,8.80
2022-10-17T20:36:41.898Z,9.30
2022-10-17T20:39:11.320Z,10.30
2022-10-17T20:41:38.072Z,10.27
2022-10-17T20:44:04.941Z,9.50
2022-10-17T20:46:44.641Z,10.35
2022-10-17T20:47:11.822Z,0
2022-10-17T20:49:18.071Z,9.93
2022-10-17T20:51:45.444Z,9.30
2022-10-17T20:54:12.539Z,9.70
2022-10-17T20:56:39.470Z,9.30
2022-10-17T20:59:10.978Z,8.70
2022-10-17T21:01:37.829Z,8.85
2022-10-17T21:06:51.702Z,9.75
2022-10-17T21:09:18.679Z,10.20
2022-10-17T21:14:32.172Z,9.70
2022-10-17T21:17:04.534Z,8.80
2022-10-17T21:19:31.874Z,10.23
2022-10-17T21:21:58.634Z,11.35
2022-10-17T21:24:25.386Z,10.53
2022-10-17T21:26:52.121Z,11.20
2022-10-17T21:29:18.849Z,12.60
2022-10-17T21:31:45.553Z,12.30
2022-10-17T21:34:17.896Z,11.50
2022-10-17T21:36:45.183Z,12.00
2022-10-17T21:39:13.306Z,13.57
2022-10-17T21:41:40.958Z,13.00
2022-10-17T21:44:12.868Z,12.27
2022-10-17T21:46:39.888Z,12.30
2022-10-17T21:48:15.508Z,0
2022-10-17T21:49:07.106Z,13.40
2022-10-17T21:51:33.948Z,13.60
2022-10-17T21:54:00.712Z,13.20
2022-10-17T21:56:28.974Z,13.20
2022-10-17T21:58:56.019Z,14.10
2022-10-17T22:01:25.129Z,13.55
2022-10-17T22:03:55.254Z,13.90
2022-10-17T22:06:40.858Z,13.50
2022-10-17T22:09:28.206Z,13.90
2022-10-17T22:11:56.575Z,14.00
2022-10-17T22:14:24.927Z,13.52
2022-10-17T22:16:51.936Z,13.98
2022-10-17T22:22:08.798Z,12.40
2022-10-17T22:27:22.285Z,13.87
2022-10-17T22:32:35.614Z,14.20
2022-10-17T22:35:02.389Z,13.40
2022-10-17T22:37:29.329Z,12.80
2022-10-17T22:39:56.241Z,13.82
2022-10-17T22:42:23.080Z,14.20
2022-10-17T22:44:49.791Z,13.63
2022-10-17T22:47:16.502Z,13.20
2022-10-17T22:49:43.218Z,14.73
2022-10-17T22:52:09.921Z,13.90
2022-10-17T22:54:36.660Z,15.03
2022-10-17T22:57:03.365Z,14.25
2022-10-17T22:59:30.105Z,14.35
2022-10-17T23:01:56.850Z,13.50
2022-10-17T23:04:23.585Z,14.20
2022-10-17T23:06:50.339Z,13.38
2022-10-17T23:09:17.089Z,14.27
2022-10-17T23:11:43.825Z,13.60
2022-10-17T23:14:10.546Z,13.60
2022-10-17T23:16:37.281Z,12.70
2022-10-17T23:19:04.089Z,12.43
2022-10-17T23:21:30.890Z,13.60
2022-10-17T23:23:57.618Z,13.43
2022-10-17T23:26:24.351Z,13.43
2022-10-17T23:28:54.547Z,13.52
2022-10-17T23:31:22.214Z,13.57
2022-10-17T23:33:49.821Z,14.90
2022-10-17T23:36:18.663Z,13.80
2022-10-17T23:38:47.012Z,13.50
2022-10-17T23:41:14.307Z,13.70
2022-10-17T23:43:41.037Z,11.15
2022-10-17T23:46:08.212Z,9.55
2022-10-17T23:48:35.170Z,9.00
2022-10-17T23:53:48.552Z,10.13
2022-10-17T23:59:02.148Z,7.15
